createdAt,value
2023-12-20T00:01:29.827Z,5.53
2023-12-20T00:03:58.459Z,5.50
2023-12-20T00:06:27.107Z,5.44
2023-12-20T00:08:55.672Z,5.42
2023-12-20T00:11:23.583Z,5.48
2023-12-20T00:13:52.288Z,5.41
2023-12-20T00:16:22.287Z,5.45
2023-12-20T00:18:50.302Z,5.43
2023-12-20T00:21:19.225Z,5.42
2023-12-20T00:23:47.297Z,5.44
2023-12-20T00:26:16.374Z,5.47
2023-12-20T00:28:44.399Z,5.41
2023-12-20T00:31:13.203Z,5.39
2023-12-20T00:33:45.730Z,5.42
2023-12-20T00:36:14.363Z,5.44
2023-12-20T00:38:42.342Z,5.49
2023-12-20T00:41:11.364Z,5.45
2023-12-20T00:43:39.352Z,5.52
2023-12-20T00:46:07.855Z,5.58
2023-12-20T00:48:38.900Z,5.53
2023-12-20T00:51:09.246Z,5.50
2023-12-20T00:53:37.856Z,5.54
2023-12-20T00:56:06.585Z,5.43
2023-12-20T00:58:34.940Z,5.48
2023-12-20T01:01:03.017Z,5.44
2023-12-20T01:03:32.344Z,5.41
2023-12-20T01:06:00.501Z,5.44
2023-12-20T01:08:30.327Z,5.40
2023-12-20T01:10:58.853Z,5.43
2023-12-20T01:13:26.989Z,5.45
2023-12-20T01:15:54.990Z,5.48
2023-12-20T01:18:24.312Z,5.46
2023-12-20T01:20:52.281Z,5.39
2023-12-20T01:23:20.868Z,5.36
2023-12-20T01:25:50.990Z,5.34
2023-12-20T01:28:19.446Z,5.35
2023-12-20T01:30:47.647Z,5.28
2023-12-20T01:33:16.379Z,5.28
2023-12-20T01:35:44.439Z,5.34
2023-12-20T01:38:13.284Z,5.29
2023-12-20T01:40:41.731Z,5.29
2023-12-20T01:43:13.354Z,5.29
2023-12-20T01:45:42.879Z,5.35
2023-12-20T01:48:12.344Z,5.25
2023-12-20T01:50:43.645Z,5.24
2023-12-20T01:53:14.326Z,5.22
2023-12-20T01:55:44.218Z,5.24
2023-12-20T01:58:14.490Z,5.19
2023-12-20T02:00:44.427Z,5.21
2023-12-20T02:03:13.569Z,5.21
2023-12-20T02:05:42.503Z,5.16
2023-12-20T02:08:11.016Z,5.15
2023-12-20T02:10:39.590Z,5.04
2023-12-20T02:13:06.603Z,4.91
2023-12-20T02:15:38.598Z,4.89
2023-12-20T02:18:08.110Z,4.86
2023-12-20T02:20:36.064Z,4.81
2023-12-20T02:23:06.703Z,4.86
2023-12-20T02:25:34.939Z,4.75
2023-12-20T02:28:03.283Z,4.79
2023-12-20T02:30:32.635Z,4.78
2023-12-20T02:33:02.163Z,4.70
2023-12-20T02:35:30.796Z,4.66
2023-12-20T02:37:59.397Z,4.78
2023-12-20T02:40:28.956Z,4.73
2023-12-20T02:42:56.926Z,4.85
2023-12-20T02:45:26.045Z,4.79
2023-12-20T02:47:54.054Z,4.67
2023-12-20T02:50:22.667Z,4.72
2023-12-20T02:52:51.487Z,4.78
2023-12-20T02:55:19.688Z,4.75
2023-12-20T02:57:49.321Z,4.66
2023-12-20T03:00:19.012Z,4.62
2023-12-20T03:02:46.925Z,4.61
2023-12-20T03:05:15.650Z,4.63
2023-12-20T03:07:44.415Z,4.65
2023-12-20T03:10:19.959Z,4.66
2023-12-20T03:12:54.414Z,4.71
2023-12-20T03:15:22.437Z,4.76
2023-12-20T03:17:50.757Z,4.73
2023-12-20T03:20:20.080Z,4.73
2023-12-20T03:22:47.970Z,4.79
2023-12-20T03:25:16.619Z,4.79
2023-12-20T03:27:45.388Z,4.78
2023-12-20T03:30:15.861Z,4.77
2023-12-20T03:32:43.985Z,4.74
2023-12-20T03:35:13.014Z,4.77
2023-12-20T03:37:41.118Z,4.85
2023-12-20T03:40:10.900Z,4.77
2023-12-20T03:42:39.376Z,4.77
2023-12-20T03:45:09.238Z,4.72
2023-12-20T03:47:39.594Z,4.79
2023-12-20T03:50:08.903Z,4.73
2023-12-20T03:52:36.815Z,4.75
2023-12-20T03:55:06.321Z,4.72
2023-12-20T03:57:34.440Z,4.71
2023-12-20T04:00:02.811Z,4.67
2023-12-20T04:02:42.569Z,4.68
2023-12-20T04:05:11.757Z,4.69
2023-12-20T04:07:40.443Z,4.70
2023-12-20T04:10:10.986Z,4.70
2023-12-20T04:12:39.030Z,4.67
2023-12-20T04:15:10.675Z,4.59
2023-12-20T04:17:40.177Z,4.59
2023-12-20T04:20:10.960Z,4.60
2023-12-20T04:22:39.842Z,4.63
2023-12-20T04:25:08.461Z,4.67
2023-12-20T04:27:37.046Z,4.67
2023-12-20T04:30:06.065Z,4.66
2023-12-20T04:32:34.414Z,4.70
2023-12-20T04:35:02.453Z,4.68
2023-12-20T04:37:32.447Z,4.65
2023-12-20T04:40:00.550Z,4.73
2023-12-20T04:42:29.224Z,4.65
2023-12-20T04:44:57.643Z,4.65
2023-12-20T04:47:25.775Z,4.68
2023-12-20T04:49:53.843Z,4.63
2023-12-20T04:52:23.155Z,4.61
2023-12-20T04:54:52.532Z,4.64
2023-12-20T04:57:21.310Z,4.61
2023-12-20T04:59:50.172Z,4.65
2023-12-20T05:02:18.440Z,4.65
2023-12-20T05:04:46.406Z,4.68
2023-12-20T05:07:15.727Z,4.75
2023-12-20T05:09:43.936Z,4.69
2023-12-20T05:12:14.068Z,4.67
2023-12-20T05:14:42.794Z,4.70
2023-12-20T05:17:10.760Z,4.75
2023-12-20T05:19:39.423Z,4.71
2023-12-20T05:22:08.162Z,4.67
2023-12-20T05:24:36.454Z,4.67
2023-12-20T05:27:04.437Z,4.68
2023-12-20T05:29:34.792Z,4.64
2023-12-20T05:32:02.761Z,4.67
2023-12-20T05:34:31.460Z,4.67
2023-12-20T05:37:00.677Z,4.67
2023-12-20T05:39:29.550Z,4.65
2023-12-20T05:41:57.538Z,4.78
2023-12-20T05:44:26.778Z,4.67
2023-12-20T05:46:56.081Z,4.72
2023-12-20T05:49:24.607Z,4.81
2023-12-20T05:51:53.417Z,4.75
2023-12-20T05:54:21.615Z,4.72
2023-12-20T05:56:49.731Z,4.74
2023-12-20T05:59:18.841Z,4.76
2023-12-20T06:01:47.009Z,4.68
2023-12-20T06:04:17.190Z,4.68
2023-12-20T06:06:46.431Z,4.65
2023-12-20T06:09:17.341Z,4.63
2023-12-20T06:11:45.963Z,4.69
2023-12-20T06:14:14.473Z,4.69
2023-12-20T06:16:42.730Z,4.67
2023-12-20T06:19:10.853Z,4.66
2023-12-20T06:21:44.411Z,4.67
2023-12-20T06:24:13.479Z,4.75
2023-12-20T06:26:40.480Z,4.68
2023-12-20T06:29:09.801Z,4.68
2023-12-20T06:31:37.907Z,4.73
2023-12-20T06:34:06.597Z,4.67
2023-12-20T06:36:35.264Z,4.68
2023-12-20T06:39:05.914Z,4.68
2023-12-20T06:41:34.531Z,4.66
2023-12-20T06:44:03.179Z,4.67
2023-12-20T06:46:31.378Z,4.68
2023-12-20T06:48:59.414Z,4.67
2023-12-20T06:51:29.123Z,4.66
2023-12-20T06:53:57.130Z,4.64
2023-12-20T06:56:26.988Z,4.61
2023-12-20T06:58:55.656Z,4.62
2023-12-20T07:01:23.840Z,4.61
2023-12-20T07:03:52.104Z,4.65
2023-12-20T07:06:20.967Z,4.67
2023-12-20T07:08:49.096Z,4.76
2023-12-20T07:11:17.092Z,4.72
2023-12-20T07:13:48.845Z,4.68
2023-12-20T07:16:16.859Z,4.66
2023-12-20T07:18:44.967Z,4.71
2023-12-20T07:21:14.436Z,4.67
2023-12-20T07:23:42.565Z,4.72
2023-12-20T07:26:11.552Z,4.71
2023-12-20T07:28:39.606Z,4.77
2023-12-20T07:31:09.292Z,4.74
2023-12-20T07:33:39.655Z,4.75
2023-12-20T07:36:09.727Z,4.76
2023-12-20T07:38:37.731Z,4.76
2023-12-20T07:41:06.563Z,4.76
2023-12-20T07:43:35.354Z,4.80
2023-12-20T07:46:07.185Z,4.80
2023-12-20T07:48:38.388Z,4.78
2023-12-20T07:51:07.134Z,4.80
2023-12-20T07:53:35.344Z,4.80
2023-12-20T07:56:04.380Z,4.80
2023-12-20T07:58:41.303Z,4.82
2023-12-20T08:01:21.497Z,4.87
2023-12-20T08:03:52.860Z,4.87
2023-12-20T08:06:22.641Z,4.86
2023-12-20T08:08:58.158Z,4.89
2023-12-20T08:11:31.304Z,4.87
2023-12-20T08:13:59.476Z,4.90
2023-12-20T08:16:28.321Z,4.95
2023-12-20T08:19:00.456Z,4.93
2023-12-20T08:21:28.706Z,4.96
2023-12-20T08:23:56.783Z,5.04
2023-12-20T08:26:25.811Z,5.05
2023-12-20T08:28:53.855Z,5.02
2023-12-20T08:31:22.679Z,5.03
2023-12-20T08:33:52.330Z,5.07
2023-12-20T08:36:22.682Z,5.02
2023-12-20T08:38:52.020Z,4.99
2023-12-20T08:41:20.350Z,4.99
2023-12-20T08:43:48.912Z,5.02
2023-12-20T08:46:18.006Z,5.01
2023-12-20T08:48:46.428Z,4.97
2023-12-20T08:51:15.551Z,4.99
2023-12-20T08:53:46.878Z,4.95
2023-12-20T08:56:15.231Z,4.98
2023-12-20T08:58:43.471Z,4.92
2023-12-20T09:01:12.671Z,4.92
2023-12-20T09:03:42.217Z,4.92
2023-12-20T09:06:10.868Z,4.91
2023-12-20T09:08:39.502Z,4.89
2023-12-20T09:11:09.241Z,4.93
2023-12-20T09:13:38.272Z,4.86
2023-12-20T09:16:06.957Z,4.86
2023-12-20T09:18:34.930Z,4.86
2023-12-20T09:21:03.289Z,4.84
2023-12-20T09:23:33.210Z,4.80
2023-12-20T09:26:01.391Z,4.85
2023-12-20T09:28:31.215Z,4.88
2023-12-20T09:30:59.787Z,4.91
2023-12-20T09:33:28.120Z,4.95
2023-12-20T09:35:56.367Z,4.98
2023-12-20T09:38:25.689Z,5.00
2023-12-20T09:40:55.240Z,4.97
2023-12-20T09:43:27.485Z,5.01
2023-12-20T09:46:03.507Z,5.03
2023-12-20T09:48:34.141Z,4.99
2023-12-20T09:51:02.623Z,4.93
2023-12-20T09:53:31.847Z,4.89
2023-12-20T09:56:02.705Z,4.86
2023-12-20T09:58:31.044Z,4.88
2023-12-20T10:01:00.847Z,4.99
2023-12-20T10:03:30.796Z,4.99
2023-12-20T10:05:59.949Z,5.00
2023-12-20T10:08:28.834Z,5.04
2023-12-20T10:10:59.264Z,5.06
2023-12-20T10:13:27.649Z,5.04
2023-12-20T10:15:59.188Z,5.09
2023-12-20T10:18:38.067Z,5.10
2023-12-20T10:21:09.338Z,5.14
2023-12-20T10:23:37.384Z,5.23
2023-12-20T10:26:05.999Z,5.22
2023-12-20T10:28:37.844Z,5.24
2023-12-20T10:31:06.298Z,5.23
2023-12-20T10:33:36.174Z,5.29
2023-12-20T10:36:06.005Z,5.28
2023-12-20T10:38:33.952Z,5.20
2023-12-20T10:41:07.403Z,5.17
2023-12-20T10:43:35.895Z,5.11
2023-12-20T10:46:05.778Z,5.09
2023-12-20T10:48:37.813Z,5.13
2023-12-20T10:51:07.655Z,5.23
2023-12-20T10:53:39.052Z,5.14
2023-12-20T10:56:10.370Z,5.10
2023-12-20T10:58:44.427Z,5.04
2023-12-20T11:01:15.179Z,4.99
2023-12-20T11:03:50.924Z,5.04
2023-12-20T11:06:32.158Z,5.02
2023-12-20T11:09:15.268Z,5.05
2023-12-20T11:11:59.264Z,5.05
2023-12-20T11:14:34.769Z,5.05
2023-12-20T11:17:15.242Z,5.08
2023-12-20T11:20:08.564Z,5.07
2023-12-20T11:22:39.633Z,5.07
2023-12-20T11:25:12.294Z,5.09
2023-12-20T11:27:44.875Z,5.12
2023-12-20T11:30:18.413Z,5.12
2023-12-20T11:32:48.715Z,5.22
2023-12-20T11:35:23.419Z,5.22
2023-12-20T11:37:53.370Z,5.29
2023-12-20T11:40:23.730Z,5.32
2023-12-20T11:42:53.901Z,5.43
2023-12-20T11:45:24.541Z,5.47
2023-12-20T11:47:55.597Z,5.46
2023-12-20T11:50:27.300Z,5.48
2023-12-20T11:52:56.437Z,5.44
2023-12-20T11:55:24.819Z,5.50
2023-12-20T11:57:54.583Z,5.55
2023-12-20T12:00:22.782Z,5.48
2023-12-20T12:02:59.176Z,5.47
2023-12-20T12:05:28.833Z,5.50
2023-12-20T12:07:57.463Z,5.53
2023-12-20T12:10:26.034Z,5.53
2023-12-20T12:12:54.402Z,5.50
2023-12-20T12:18:10.064Z,5.54
2023-12-20T12:20:39.510Z,5.50
2023-12-20T12:23:08.295Z,5.56
2023-12-20T12:25:42.399Z,5.62
2023-12-20T12:28:14.546Z,5.63
2023-12-20T12:30:50.355Z,5.65
2023-12-20T12:33:23.102Z,5.68
2023-12-20T12:35:53.079Z,5.66
2023-12-20T12:38:22.743Z,5.77
2023-12-20T12:40:52.038Z,5.71
2023-12-20T12:43:20.323Z,5.73
2023-12-20T12:45:48.984Z,5.71
2023-12-20T12:48:17.430Z,5.71
2023-12-20T12:50:46.688Z,5.67
2023-12-20T12:53:16.077Z,5.64
2023-12-20T12:55:44.388Z,5.57
2023-12-20T12:58:14.228Z,5.48
2023-12-20T13:00:43.563Z,5.42
2023-12-20T13:03:12.184Z,5.39
2023-12-20T13:05:44.347Z,5.38
2023-12-20T13:08:15.917Z,5.41
2023-12-20T13:10:45.362Z,5.43
2023-12-20T13:13:13.337Z,5.42
2023-12-20T13:15:42.379Z,5.38
2023-12-20T13:18:11.087Z,5.34
2023-12-20T13:20:41.748Z,5.31
2023-12-20T13:23:11.057Z,5.29
2023-12-20T13:25:42.453Z,5.25
2023-12-20T13:28:12.318Z,5.21
2023-12-20T13:30:41.048Z,5.01
2023-12-20T13:33:09.738Z,4.91
2023-12-20T13:35:39.655Z,4.93
2023-12-20T13:38:08.828Z,4.95
2023-12-20T13:40:36.827Z,4.84
2023-12-20T13:43:07.342Z,4.75
2023-12-20T13:45:35.538Z,4.65
2023-12-20T13:48:03.636Z,4.63
2023-12-20T13:50:33.017Z,4.57
2023-12-20T13:53:02.059Z,4.49
2023-12-20T13:55:31.578Z,4.44
2023-12-20T13:58:00.378Z,4.42
2023-12-20T14:00:30.027Z,4.44
2023-12-20T14:03:00.326Z,4.42
2023-12-20T14:05:29.696Z,4.41
2023-12-20T14:08:00.049Z,4.43
2023-12-20T14:10:31.251Z,4.44
2023-12-20T14:13:00.961Z,4.45
2023-12-20T14:15:32.055Z,4.41
2023-12-20T14:18:00.274Z,4.39
2023-12-20T14:20:28.359Z,4.38
2023-12-20T14:22:57.313Z,4.40
2023-12-20T14:25:25.396Z,4.40
2023-12-20T14:27:54.205Z,4.38
2023-12-20T14:30:22.954Z,4.37
2023-12-20T14:32:52.989Z,4.36
2023-12-20T14:35:21.853Z,4.39
2023-12-20T14:37:53.358Z,4.38
2023-12-20T14:40:21.815Z,4.35
2023-12-20T14:42:50.178Z,4.34
2023-12-20T14:45:20.117Z,4.36
2023-12-20T14:47:49.621Z,4.35
2023-12-20T14:50:20.845Z,4.34
2023-12-20T14:52:49.393Z,4.40
2023-12-20T14:55:18.634Z,4.32
2023-12-20T14:57:47.749Z,4.34
2023-12-20T15:00:17.589Z,4.33
2023-12-20T15:02:47.049Z,4.34
2023-12-20T15:05:16.264Z,4.31
2023-12-20T15:07:46.162Z,4.29
2023-12-20T15:10:15.041Z,4.29
2023-12-20T15:12:43.464Z,4.32
2023-12-20T15:15:12.108Z,4.31
2023-12-20T15:17:40.099Z,4.23
2023-12-20T15:20:11.903Z,4.26
2023-12-20T15:22:40.845Z,4.27
2023-12-20T15:25:11.619Z,4.23
2023-12-20T15:27:40.386Z,4.29
2023-12-20T15:30:11.005Z,4.30
2023-12-20T15:32:41.956Z,4.33
2023-12-20T15:35:10.951Z,4.30
2023-12-20T15:37:40.373Z,4.33
2023-12-20T15:40:13.658Z,4.32
2023-12-20T15:42:42.415Z,4.40
2023-12-20T15:45:11.176Z,4.39
2023-12-20T15:47:40.434Z,4.40
2023-12-20T15:50:09.612Z,4.33
2023-12-20T15:52:39.149Z,4.36
2023-12-20T15:55:09.219Z,4.36
2023-12-20T15:57:45.955Z,4.33
2023-12-20T16:00:22.167Z,4.34
2023-12-20T16:02:50.942Z,4.43
2023-12-20T16:05:20.035Z,4.45
2023-12-20T16:07:49.092Z,4.38
2023-12-20T16:10:17.606Z,4.28
2023-12-20T16:12:47.140Z,4.28
2023-12-20T16:15:16.376Z,4.25
2023-12-20T16:17:44.671Z,4.25
2023-12-20T16:20:15.553Z,4.30
2023-12-20T16:22:44.416Z,4.27
2023-12-20T16:25:12.566Z,4.23
2023-12-20T16:27:41.217Z,4.23
2023-12-20T16:30:11.921Z,4.38
2023-12-20T16:32:40.128Z,4.67
2023-12-20T16:35:08.763Z,4.68
2023-12-20T16:37:39.643Z,4.80
2023-12-20T16:40:09.282Z,4.99
2023-12-20T16:42:37.341Z,4.86
2023-12-20T16:45:09.081Z,4.71
2023-12-20T16:47:38.617Z,4.79
2023-12-20T16:50:08.041Z,4.97
2023-12-20T16:52:37.721Z,4.98
2023-12-20T16:55:07.265Z,5.08
2023-12-20T16:57:37.194Z,5.15
2023-12-20T17:00:06.480Z,5.15
2023-12-20T17:02:34.931Z,5.26
2023-12-20T17:05:05.011Z,5.21
2023-12-20T17:07:34.351Z,5.29
2023-12-20T17:10:02.520Z,5.26
2023-12-20T17:12:31.484Z,5.30
2023-12-20T17:15:01.045Z,5.30
2023-12-20T17:17:29.276Z,5.35
2023-12-20T17:19:57.849Z,5.28
2023-12-20T17:22:27.409Z,5.32
2023-12-20T17:24:55.351Z,5.43
2023-12-20T17:27:24.057Z,5.38
2023-12-20T17:29:50.965Z,5.40
2023-12-20T17:32:19.681Z,5.33
2023-12-20T17:34:47.842Z,5.36
2023-12-20T17:37:16.204Z,5.40
2023-12-20T17:39:45.695Z,5.38
2023-12-20T17:42:15.353Z,5.36
2023-12-20T17:44:43.401Z,5.39
2023-12-20T17:47:12.228Z,5.36
2023-12-20T17:49:41.995Z,5.39
2023-12-20T17:52:16.884Z,5.41
2023-12-20T17:54:47.342Z,5.41
2023-12-20T17:57:15.239Z,5.35
2023-12-20T17:59:43.234Z,5.36
2023-12-20T18:02:12.401Z,5.38
2023-12-20T18:04:40.538Z,5.36
2023-12-20T18:07:09.188Z,5.40
2023-12-20T18:09:37.934Z,5.41
2023-12-20T18:12:09.505Z,5.38
2023-12-20T18:14:38.734Z,5.39
2023-12-20T18:17:06.759Z,5.40
2023-12-20T18:19:36.069Z,5.42
2023-12-20T18:22:05.051Z,5.41
2023-12-20T18:24:33.122Z,5.40
2023-12-20T18:27:01.068Z,5.37
2023-12-20T18:29:31.680Z,5.42
2023-12-20T18:31:59.841Z,5.38
2023-12-20T18:34:28.033Z,5.39
2023-12-20T18:36:57.438Z,5.41
2023-12-20T18:39:25.590Z,5.39
2023-12-20T18:41:54.878Z,5.40
2023-12-20T18:44:23.304Z,5.40
2023-12-20T18:46:52.867Z,5.40
2023-12-20T18:49:21.406Z,5.43
2023-12-20T18:51:51.394Z,5.41
2023-12-20T18:54:21.687Z,5.43
2023-12-20T18:56:51.104Z,5.41
2023-12-20T18:59:20.908Z,5.42
2023-12-20T19:01:49.283Z,5.44
2023-12-20T19:04:18.757Z,5.40
2023-12-20T19:06:47.886Z,5.43
2023-12-20T19:09:17.169Z,5.42
2023-12-20T19:11:45.496Z,5.41
2023-12-20T19:14:15.308Z,5.41
2023-12-20T19:16:43.457Z,5.42
2023-12-20T19:19:11.746Z,5.42
2023-12-20T19:21:43.539Z,5.44
2023-12-20T19:24:12.179Z,5.45
2023-12-20T19:26:40.272Z,5.48
2023-12-20T19:29:09.040Z,5.49
2023-12-20T19:31:37.442Z,5.53
2023-12-20T19:34:06.206Z,5.54
2023-12-20T19:36:35.044Z,5.53
2023-12-20T19:39:04.749Z,5.51
2023-12-20T19:41:33.673Z,5.54
2023-12-20T19:44:04.254Z,5.58
2023-12-20T19:46:32.441Z,5.57
2023-12-20T19:49:00.587Z,5.56
2023-12-20T19:51:29.525Z,5.60
2023-12-20T19:53:57.632Z,5.59
2023-12-20T19:56:27.176Z,5.64
2023-12-20T19:58:57.445Z,5.60
2023-12-20T20:01:26.394Z,5.61
2023-12-20T20:03:55.080Z,5.67
2023-12-20T20:06:24.369Z,5.64
2023-12-20T20:08:52.611Z,5.67
2023-12-20T20:11:29.962Z,5.68
2023-12-20T20:14:05.345Z,5.67
2023-12-20T20:16:34.344Z,5.66
2023-12-20T20:19:02.737Z,5.64
2023-12-20T20:21:31.900Z,5.67
2023-12-20T20:23:59.918Z,5.72
2023-12-20T20:26:28.234Z,5.71
2023-12-20T20:28:56.656Z,5.74
2023-12-20T20:31:26.176Z,5.70
2023-12-20T20:33:54.520Z,5.70
2023-12-20T20:36:24.183Z,5.71
2023-12-20T20:38:52.092Z,5.72
2023-12-20T20:41:20.551Z,5.79
2023-12-20T20:43:49.176Z,5.80
2023-12-20T20:46:20.349Z,5.77
2023-12-20T20:48:52.228Z,5.81
2023-12-20T20:51:21.260Z,5.76
2023-12-20T20:53:53.897Z,5.80
2023-12-20T20:56:27.162Z,5.81
2023-12-20T20:58:55.121Z,5.84
2023-12-20T21:01:23.965Z,5.80
2023-12-20T21:03:55.556Z,5.83
2023-12-20T21:06:23.940Z,5.84
2023-12-20T21:08:51.905Z,5.84
2023-12-20T21:11:22.599Z,5.85
2023-12-20T21:13:51.362Z,5.86
2023-12-20T21:16:19.667Z,5.88
2023-12-20T21:18:49.203Z,5.90
2023-12-20T21:21:19.280Z,5.90
2023-12-20T21:23:48.040Z,5.94
2023-12-20T21:26:16.744Z,5.91
2023-12-20T21:28:44.958Z,5.96
2023-12-20T21:31:13.718Z,5.99
2023-12-20T21:33:43.629Z,5.96
2023-12-20T21:36:11.934Z,5.94
2023-12-20T21:38:42.121Z,5.97
2023-12-20T21:41:14.005Z,6.00
2023-12-20T21:43:46.639Z,6.01
2023-12-20T21:46:14.607Z,6.03
2023-12-20T21:48:42.709Z,6.03
2023-12-20T21:51:11.114Z,6.06
2023-12-20T21:53:40.940Z,6.06
2023-12-20T21:56:11.451Z,6.10
2023-12-20T21:58:40.580Z,6.11
2023-12-20T22:01:08.738Z,6.14
2023-12-20T22:03:41.258Z,6.19
2023-12-20T22:06:11.722Z,6.15
2023-12-20T22:08:39.804Z,6.14
2023-12-20T22:11:11.649Z,6.15
2023-12-20T22:13:40.340Z,6.25
2023-12-20T22:16:09.678Z,6.21
2023-12-20T22:18:38.642Z,6.18
2023-12-20T22:21:06.830Z,6.26
2023-12-20T22:23:36.113Z,6.25
2023-12-20T22:26:04.808Z,6.28
2023-12-20T22:28:35.174Z,6.29
2023-12-20T22:31:04.857Z,6.26
2023-12-20T22:33:32.927Z,6.25
2023-12-20T22:36:01.656Z,6.34
2023-12-20T22:38:31.853Z,6.34
2023-12-20T22:41:00.157Z,6.35
2023-12-20T22:43:28.246Z,6.33
2023-12-20T22:45:58.674Z,6.33
2023-12-20T22:48:26.413Z,6.32
2023-12-20T22:50:54.569Z,6.33
2023-12-20T22:53:24.047Z,6.32
2023-12-20T22:55:52.022Z,6.40
2023-12-20T22:58:20.687Z,6.37
2023-12-20T23:00:49.159Z,6.41
2023-12-20T23:03:55.073Z,6.45
2023-12-20T23:07:02.811Z,6.45
2023-12-20T23:09:49.844Z,6.41
2023-12-20T23:12:18.787Z,6.41
2023-12-20T23:14:46.772Z,6.42
2023-12-20T23:17:15.391Z,6.43
2023-12-20T23:19:45.474Z,6.44
2023-12-20T23:22:14.374Z,6.41
2023-12-20T23:24:42.894Z,6.41
2023-12-20T23:27:12.188Z,6.44
2023-12-20T23:29:40.247Z,6.48
2023-12-20T23:32:08.879Z,6.49
2023-12-20T23:34:37.678Z,6.46
2023-12-20T23:37:08.068Z,6.50
2023-12-20T23:39:37.072Z,6.51
2023-12-20T23:42:05.992Z,6.48
2023-12-20T23:44:34.237Z,6.51
2023-12-20T23:47:02.226Z,6.54
2023-12-20T23:49:31.417Z,6.53
2023-12-20T23:51:59.468Z,6.53
2023-12-20T23:54:29.425Z,6.55
2023-12-20T23:56:57.935Z,6.58
2023-12-20T23:59:26.036Z,6.56
